createdAt,value
2023-01-17T00:02:26.233Z,98488.88
2023-01-17T00:05:11.427Z,98475.00
2023-01-17T00:07:56.201Z,98487.50
2023-01-17T00:10:24.752Z,98490.13
2023-01-17T00:12:54.184Z,98493.00
2023-01-17T00:15:22.849Z,98499.16
2023-01-17T00:17:49.951Z,98502.88
2023-01-17T00:20:36.604Z,98504.94
2023-01-17T00:23:33.625Z,98509.47
2023-01-17T00:26:03.177Z,98501.69
2023-01-17T00:28:38.607Z,98504.13
2023-01-17T00:31:08.004Z,98510.97
2023-01-17T00:33:34.547Z,98527.44
2023-01-17T00:36:01.752Z,98516.34
2023-01-17T00:38:33.486Z,98524.97
2023-01-17T00:41:06.967Z,98531.56
2023-01-17T00:43:52.087Z,98543.91
2023-01-17T00:46:38.125Z,98545.97
2023-01-17T00:49:23.931Z,98554.91
2023-01-17T00:52:09.319Z,98564.09
2023-01-17T00:54:54.246Z,98572.75
2023-01-17T00:57:39.057Z,98584.00
2023-01-17T01:00:25.101Z,98579.34
2023-01-17T01:03:09.819Z,98590.81
2023-01-17T01:05:56.618Z,98585.88
2023-01-17T01:08:44.582Z,98582.75
2023-01-17T01:11:32.411Z,98575.75
2023-01-17T01:14:18.417Z,98574.94
2023-01-17T01:17:03.368Z,98580.16
2023-01-17T01:19:48.125Z,98585.06
2023-01-17T01:22:33.078Z,98605.59
2023-01-17T01:25:18.410Z,98606.28
2023-01-17T01:28:03.239Z,98606.13
2023-01-17T01:30:48.059Z,98606.94
2023-01-17T01:33:21.129Z,98622.56
2023-01-17T01:35:50.623Z,98626.81
2023-01-17T01:38:19.431Z,98623.94
2023-01-17T01:40:48.770Z,98622.03
2023-01-17T01:43:18.225Z,98628.84
2023-01-17T01:45:50.825Z,98638.13
2023-01-17T01:48:39.405Z,98628.81
2023-01-17T01:51:17.555Z,98631.34
2023-01-17T01:53:47.824Z,98635.56
2023-01-17T01:56:15.404Z,98638.00
2023-01-17T01:58:46.114Z,98637.72
2023-01-17T02:01:13.151Z,98649.44
2023-01-17T02:03:41.255Z,98646.41
2023-01-17T02:06:23.216Z,98656.47
2023-01-17T02:08:49.693Z,98664.66
2023-01-17T02:11:16.109Z,98673.16
2023-01-17T02:13:43.463Z,98677.84
2023-01-17T02:16:33.478Z,98694.78
2023-01-17T02:19:20.755Z,98714.22
2023-01-17T02:22:24.459Z,98709.63
2023-01-17T02:25:28.585Z,98714.66
2023-01-17T02:28:30.570Z,98711.75
2023-01-17T02:31:09.043Z,98717.72
2023-01-17T02:34:04.573Z,98721.25
2023-01-17T02:36:43.222Z,98707.00
2023-01-17T02:39:17.783Z,98703.72
2023-01-17T02:41:48.838Z,98713.06
2023-01-17T02:44:20.491Z,98705.25
2023-01-17T02:46:48.998Z,98706.19
2023-01-17T02:49:17.669Z,98710.56
2023-01-17T02:52:01.718Z,98720.13
2023-01-17T02:55:07.731Z,98719.88
2023-01-17T02:58:06.357Z,98717.38
2023-01-17T03:01:04.914Z,98720.13
2023-01-17T03:03:50.121Z,98726.53
2023-01-17T03:06:34.771Z,98723.34
2023-01-17T03:09:02.794Z,98722.81
2023-01-17T03:11:29.292Z,98731.50
2023-01-17T03:13:56.914Z,98729.88
2023-01-17T03:16:26.538Z,98737.91
2023-01-17T03:18:53.824Z,98736.50
2023-01-17T03:21:21.332Z,98742.66
2023-01-17T03:23:47.734Z,98734.88
2023-01-17T03:26:14.297Z,98747.59
2023-01-17T03:28:40.723Z,98755.97
2023-01-17T03:31:07.259Z,98746.03
2023-01-17T03:33:34.285Z,98756.16
2023-01-17T03:36:00.807Z,98756.97
2023-01-17T03:38:28.603Z,98759.47
2023-01-17T03:40:55.103Z,98758.63
2023-01-17T03:43:21.489Z,98766.78
2023-01-17T03:45:54.034Z,98769.75
2023-01-17T03:48:21.332Z,98763.41
2023-01-17T03:50:51.387Z,98767.59
2023-01-17T03:53:17.728Z,98771.50
2023-01-17T03:55:47.498Z,98779.09
2023-01-17T03:58:14.548Z,98777.22
2023-01-17T04:00:40.904Z,98771.56
2023-01-17T04:03:07.580Z,98773.72
2023-01-17T04:05:33.951Z,98768.75
2023-01-17T04:08:00.651Z,98772.56
2023-01-17T04:10:27.046Z,98783.41
2023-01-17T04:12:53.551Z,98773.50
2023-01-17T04:15:19.967Z,98786.00
2023-01-17T04:17:46.339Z,98795.91
2023-01-17T04:20:29.461Z,98800.38
2023-01-17T04:22:55.877Z,98801.56
2023-01-17T04:25:22.276Z,98806.41
2023-01-17T04:27:48.667Z,98809.34
2023-01-17T04:30:15.162Z,98798.47
2023-01-17T04:32:41.549Z,98796.59
2023-01-17T04:35:09.416Z,98798.22
2023-01-17T04:37:36.304Z,98789.63
2023-01-17T04:40:03.659Z,98790.72
2023-01-17T04:42:30.100Z,98783.97
2023-01-17T04:44:56.479Z,98779.25
2023-01-17T04:47:22.853Z,98782.47
2023-01-17T04:49:49.259Z,98779.19
2023-01-17T04:52:18.577Z,98783.41
2023-01-17T04:54:45.153Z,98774.94
2023-01-17T04:57:11.479Z,98778.22
2023-01-17T04:59:37.792Z,98779.41
2023-01-17T05:02:04.185Z,98784.59
2023-01-17T05:04:30.527Z,98782.94
2023-01-17T05:06:56.919Z,98782.72
2023-01-17T05:09:23.355Z,98791.31
2023-01-17T05:11:50.518Z,98794.94
2023-01-17T05:14:16.963Z,98800.13
2023-01-17T05:16:43.331Z,98791.78
2023-01-17T05:19:09.700Z,98804.16
2023-01-17T05:21:36.036Z,98806.25
2023-01-17T05:24:02.479Z,98808.41
2023-01-17T05:26:28.856Z,98805.34
2023-01-17T05:28:55.248Z,98815.09
2023-01-17T05:31:21.675Z,98808.66
2023-01-17T05:33:48.105Z,98812.88
2023-01-17T05:36:14.496Z,98802.28
2023-01-17T05:38:40.892Z,98817.81
2023-01-17T05:41:07.337Z,98809.34
2023-01-17T05:43:33.726Z,98815.00
2023-01-17T05:46:00.093Z,98822.06
2023-01-17T05:48:26.511Z,98818.06
2023-01-17T05:50:52.815Z,98822.16
2023-01-17T05:53:19.393Z,98826.63
2023-01-17T05:55:45.921Z,98833.34
2023-01-17T05:58:16.311Z,98836.06
2023-01-17T06:00:42.891Z,98841.34
2023-01-17T06:03:09.643Z,98847.00
2023-01-17T06:05:36.069Z,98837.59
2023-01-17T06:08:03.040Z,98839.84
2023-01-17T06:10:29.737Z,98846.31
2023-01-17T06:13:14.237Z,98840.91
2023-01-17T06:15:41.380Z,98851.75
2023-01-17T06:18:13.191Z,98845.97
2023-01-17T06:20:40.228Z,98849.41
2023-01-17T06:23:10.009Z,98860.25
2023-01-17T06:25:44.971Z,98865.66
2023-01-17T06:28:13.580Z,98869.91
2023-01-17T06:30:40.383Z,98864.09
2023-01-17T06:33:06.723Z,98862.34
2023-01-17T06:35:33.709Z,98864.22
2023-01-17T06:38:00.377Z,98849.63
2023-01-17T06:40:30.535Z,98849.16
2023-01-17T06:43:06.316Z,98854.56
2023-01-17T06:45:35.047Z,98851.53
2023-01-17T06:48:04.014Z,98851.19
2023-01-17T06:50:30.978Z,98856.00
2023-01-17T06:53:00.966Z,98861.41
2023-01-17T06:55:29.134Z,98856.69
2023-01-17T06:57:56.642Z,98864.72
2023-01-17T07:00:23.361Z,98869.19
2023-01-17T07:02:51.262Z,98866.38
2023-01-17T07:05:18.016Z,98869.53
2023-01-17T07:07:45.502Z,98873.22
2023-01-17T07:10:14.025Z,98873.78
2023-01-17T07:12:40.399Z,98873.19
2023-01-17T07:15:08.004Z,98873.44
2023-01-17T07:17:35.042Z,98874.34
2023-01-17T07:20:01.596Z,98873.66
2023-01-17T07:22:28.034Z,98875.75
2023-01-17T07:24:58.497Z,98883.16
2023-01-17T07:27:27.641Z,98883.28
2023-01-17T07:29:54.384Z,98888.91
2023-01-17T07:32:20.938Z,98885.81
2023-01-17T07:34:47.320Z,98879.72
2023-01-17T07:37:15.192Z,98883.97
2023-01-17T07:39:41.956Z,98886.31
2023-01-17T07:42:09.103Z,98876.06
2023-01-17T07:44:35.471Z,98881.47
2023-01-17T07:47:01.962Z,98895.34
2023-01-17T07:49:28.341Z,98888.41
2023-01-17T07:51:55.509Z,98894.53
2023-01-17T07:54:22.060Z,98891.13
2023-01-17T07:56:48.920Z,98884.91
2023-01-17T07:59:15.342Z,98889.34
2023-01-17T08:01:41.794Z,98897.50
2023-01-17T08:04:09.221Z,98895.47
2023-01-17T08:06:37.815Z,98898.06
2023-01-17T08:09:04.223Z,98885.63
2023-01-17T08:11:30.663Z,98892.19
2023-01-17T08:14:00.192Z,98895.53
2023-01-17T08:16:28.578Z,98887.63
2023-01-17T08:18:56.158Z,98895.91
2023-01-17T08:21:24.401Z,98899.06
2023-01-17T08:23:52.341Z,98898.13
2023-01-17T08:26:23.832Z,98899.78
2023-01-17T08:29:00.449Z,98905.44
2023-01-17T08:31:29.536Z,98907.56
2023-01-17T08:33:56.939Z,98904.88
2023-01-17T08:36:25.709Z,98908.88
2023-01-17T08:38:52.910Z,98907.84
2023-01-17T08:41:20.811Z,98907.97
2023-01-17T08:43:48.116Z,98911.84
2023-01-17T08:46:14.497Z,98919.16
2023-01-17T08:48:40.931Z,98911.16
2023-01-17T08:51:07.326Z,98911.88
2023-01-17T08:53:33.900Z,98920.84
2023-01-17T08:56:01.960Z,98923.91
2023-01-17T08:58:30.763Z,98922.47
2023-01-17T09:01:05.772Z,98921.75
2023-01-17T09:03:33.863Z,98921.19
2023-01-17T09:06:11.739Z,98928.59
2023-01-17T09:08:39.005Z,98926.03
2023-01-17T09:11:10.073Z,98927.19
2023-01-17T09:13:37.230Z,98929.75
2023-01-17T09:16:04.393Z,98934.38
2023-01-17T09:18:31.905Z,98935.31
2023-01-17T09:21:01.410Z,98936.75
2023-01-17T09:23:30.003Z,98941.81
2023-01-17T09:25:58.830Z,98940.63
2023-01-17T09:28:26.535Z,98946.53
2023-01-17T09:30:53.883Z,98946.53
2023-01-17T09:33:20.991Z,98946.53
2023-01-17T09:35:47.387Z,98944.38
2023-01-17T09:38:14.128Z,98945.53
2023-01-17T09:40:45.989Z,98953.56
2023-01-17T09:43:40.044Z,98956.50
2023-01-17T09:46:25.371Z,98965.00
2023-01-17T09:49:07.825Z,98958.97
2023-01-17T09:51:34.567Z,98958.03
2023-01-17T09:54:02.381Z,98969.03
2023-01-17T09:56:35.225Z,98970.06
2023-01-17T09:59:32.997Z,98968.94
2023-01-17T10:02:26.392Z,98979.72
2023-01-17T10:05:19.611Z,98973.13
2023-01-17T10:08:13.832Z,98978.31
2023-01-17T10:11:05.112Z,98971.28
2023-01-17T10:14:01.673Z,98969.81
2023-01-17T10:16:41.904Z,98979.28
2023-01-17T10:19:19.137Z,98969.47
2023-01-17T10:22:04.199Z,98977.78
2023-01-17T10:24:51.818Z,98968.56
2023-01-17T10:27:34.719Z,98966.63
2023-01-17T10:30:04.837Z,98969.94
2023-01-17T10:32:35.537Z,98966.25
2023-01-17T10:35:17.538Z,98963.91
2023-01-17T10:37:44.243Z,98973.22
2023-01-17T10:40:22.094Z,98972.13
2023-01-17T10:43:03.203Z,98974.19
2023-01-17T10:45:30.210Z,98977.59
2023-01-17T10:48:12.902Z,98977.84
2023-01-17T10:51:16.030Z,98977.19
2023-01-17T10:54:10.249Z,98985.03
2023-01-17T10:56:40.171Z,98984.78
2023-01-17T10:59:18.407Z,98977.66
2023-01-17T11:01:45.155Z,98972.53
2023-01-17T11:04:32.267Z,98973.06
2023-01-17T11:07:15.618Z,98970.16
2023-01-17T11:09:44.556Z,98978.22
2023-01-17T11:12:18.767Z,98980.03
2023-01-17T11:15:01.865Z,98979.25
2023-01-17T11:17:29.334Z,98976.84
2023-01-17T11:20:07.634Z,98974.38
2023-01-17T11:22:34.899Z,98971.56
2023-01-17T11:25:02.460Z,98974.94
2023-01-17T11:27:34.512Z,98978.13
2023-01-17T11:30:16.208Z,98976.53
2023-01-17T11:32:59.043Z,98975.72
2023-01-17T11:35:28.940Z,98978.16
2023-01-17T11:38:11.638Z,98958.47
2023-01-17T11:40:45.921Z,98963.13
2023-01-17T11:43:12.742Z,98964.38
2023-01-17T11:45:40.983Z,98961.41
2023-01-17T11:48:13.411Z,98953.97
2023-01-17T11:50:43.952Z,98958.13
2023-01-17T11:53:36.912Z,98952.75
2023-01-17T11:56:05.239Z,98952.72
2023-01-17T11:58:34.534Z,98955.72
2023-01-17T12:01:20.906Z,98951.72
2023-01-17T12:03:47.286Z,98942.47
2023-01-17T12:06:19.381Z,98938.75
2023-01-17T12:08:59.481Z,98936.44
2023-01-17T12:11:37.944Z,98941.38
2023-01-17T12:14:18.233Z,98935.75
2023-01-17T12:17:03.953Z,98936.09
2023-01-17T12:19:33.928Z,98936.69
2023-01-17T12:22:24.672Z,98937.28
2023-01-17T12:25:26.589Z,98931.19
2023-01-17T12:28:01.760Z,98919.00
2023-01-17T12:30:53.123Z,98917.84
2023-01-17T12:33:38.863Z,98921.06
2023-01-17T12:36:17.455Z,98917.63
2023-01-17T12:38:47.119Z,98915.41
2023-01-17T12:41:26.441Z,98911.75
2023-01-17T12:43:57.551Z,98921.88
2023-01-17T12:46:30.203Z,98913.03
2023-01-17T12:49:04.369Z,98904.94
2023-01-17T12:51:36.963Z,98905.81
2023-01-17T12:54:17.148Z,98910.31
2023-01-17T12:56:58.135Z,98902.28
2023-01-17T12:59:42.799Z,98911.03
2023-01-17T13:02:22.010Z,98908.41
2023-01-17T13:05:00.700Z,98921.34
2023-01-17T13:07:51.409Z,98925.34
2023-01-17T13:10:41.469Z,98914.03
2023-01-17T13:13:26.389Z,98908.47
2023-01-17T13:16:00.795Z,98914.75
2023-01-17T13:18:29.737Z,98907.88
2023-01-17T13:21:14.036Z,98918.88
2023-01-17T13:24:03.265Z,98924.47
2023-01-17T13:26:36.448Z,98921.84
2023-01-17T13:29:21.743Z,98921.53
2023-01-17T13:31:57.549Z,98934.97
2023-01-17T13:34:45.828Z,98934.22
2023-01-17T13:37:49.787Z,98939.69
2023-01-17T13:40:32.939Z,98941.16
2023-01-17T13:43:01.672Z,98929.88
2023-01-17T13:45:31.841Z,98938.44
2023-01-17T13:48:29.820Z,98934.47
2023-01-17T13:50:59.046Z,98939.63
2023-01-17T13:53:34.406Z,98941.84
2023-01-17T13:56:19.041Z,98950.00
2023-01-17T13:58:50.035Z,98951.09
2023-01-17T14:01:22.528Z,98967.41
2023-01-17T14:03:48.915Z,98959.16
2023-01-17T14:06:35.398Z,98956.84
2023-01-17T14:09:07.925Z,98967.56
2023-01-17T14:11:36.262Z,98973.91
2023-01-17T14:14:39.884Z,98971.31
2023-01-17T14:17:29.136Z,98967.94
2023-01-17T14:20:01.923Z,98966.03
2023-01-17T14:22:34.000Z,98981.81
2023-01-17T14:25:12.244Z,98977.16
2023-01-17T14:28:00.039Z,98980.34
2023-01-17T14:30:36.846Z,98982.25
2023-01-17T14:33:04.675Z,98974.03
2023-01-17T14:35:40.332Z,98975.53
2023-01-17T14:38:21.376Z,98978.31
2023-01-17T14:40:54.136Z,98972.84
2023-01-17T14:43:23.518Z,98970.06
2023-01-17T14:45:57.765Z,98968.72
2023-01-17T14:48:24.903Z,98969.13
2023-01-17T14:50:59.813Z,98974.22
2023-01-17T14:53:31.462Z,98981.47
2023-01-17T14:56:03.414Z,98974.19
2023-01-17T14:58:31.918Z,98979.13
2023-01-17T15:01:19.356Z,98978.16
2023-01-17T15:03:50.210Z,98980.63
2023-01-17T15:06:24.019Z,98991.00
2023-01-17T15:08:53.980Z,98988.53
2023-01-17T15:11:26.858Z,98988.91
2023-01-17T15:13:57.414Z,98985.16
2023-01-17T15:16:30.780Z,98991.97
2023-01-17T15:18:57.449Z,98988.66
2023-01-17T15:21:29.588Z,98992.50
2023-01-17T15:24:02.252Z,99000.88
2023-01-17T15:26:33.097Z,99008.59
2023-01-17T15:29:05.362Z,99013.41
2023-01-17T15:31:54.041Z,99017.03
2023-01-17T15:34:29.575Z,99008.94
2023-01-17T15:36:59.467Z,99009.38
2023-01-17T15:39:33.443Z,99009.03
2023-01-17T15:42:04.372Z,99010.84
2023-01-17T15:44:48.555Z,99009.91
2023-01-17T15:47:32.745Z,99006.41
2023-01-17T15:50:01.181Z,99007.84
2023-01-17T15:52:28.299Z,99013.72
2023-01-17T15:55:30.107Z,99014.47
2023-01-17T15:57:56.922Z,99008.34
2023-01-17T16:00:32.650Z,99012.72
2023-01-17T16:02:59.619Z,99012.69
2023-01-17T16:05:31.073Z,99008.56
2023-01-17T16:08:23.069Z,99018.34
2023-01-17T16:10:53.604Z,99018.91
2023-01-17T16:13:20.391Z,99017.22
2023-01-17T16:15:46.850Z,99020.50
2023-01-17T16:18:17.793Z,99023.63
2023-01-17T16:20:53.179Z,99029.50
2023-01-17T16:23:19.560Z,99026.63
2023-01-17T16:25:47.183Z,99025.63
2023-01-17T16:28:13.503Z,99027.84
2023-01-17T16:30:40.027Z,99029.00
2023-01-17T16:33:06.557Z,99031.09
2023-01-17T16:35:34.541Z,99030.59
2023-01-17T16:38:04.266Z,99035.28
2023-01-17T16:40:39.233Z,99030.53
2023-01-17T16:43:05.997Z,99028.88
2023-01-17T16:45:40.044Z,99035.09
2023-01-17T16:48:06.695Z,99039.47
2023-01-17T16:50:33.064Z,99042.06
2023-01-17T16:52:59.580Z,99041.78
2023-01-17T16:55:26.468Z,99036.41
2023-01-17T16:57:56.255Z,99048.00
2023-01-17T17:00:23.098Z,99050.09
2023-01-17T17:02:53.516Z,99044.91
2023-01-17T17:05:20.219Z,99051.94
2023-01-17T17:07:50.133Z,99045.34
2023-01-17T17:10:21.871Z,99059.63
2023-01-17T17:12:48.203Z,99060.25
2023-01-17T17:15:14.575Z,99071.00
2023-01-17T17:17:42.975Z,99076.19
2023-01-17T17:20:12.473Z,99069.16
2023-01-17T17:22:44.047Z,99080.34
2023-01-17T17:25:11.962Z,99077.75
2023-01-17T17:27:38.817Z,99087.34
2023-01-17T17:30:06.297Z,99081.34
2023-01-17T17:32:32.735Z,99090.28
2023-01-17T17:34:59.117Z,99093.75
2023-01-17T17:37:28.740Z,99090.47
2023-01-17T17:39:56.160Z,99100.81
2023-01-17T17:42:23.190Z,99099.16
2023-01-17T17:44:49.536Z,99095.09
2023-01-17T17:47:16.342Z,99108.25
2023-01-17T17:49:43.442Z,99108.66
2023-01-17T17:52:10.050Z,99106.47
2023-01-17T17:54:36.833Z,99109.06
2023-01-17T17:57:03.467Z,99122.00
2023-01-17T17:59:30.016Z,99126.34
2023-01-17T18:01:57.056Z,99119.41
2023-01-17T18:04:23.579Z,99124.59
2023-01-17T18:06:49.986Z,99128.28
2023-01-17T18:09:16.585Z,99128.50
2023-01-17T18:11:43.999Z,99132.94
2023-01-17T18:14:14.641Z,99139.97
2023-01-17T18:16:43.383Z,99142.47
2023-01-17T18:19:16.605Z,99147.53
2023-01-17T18:21:43.497Z,99148.34
2023-01-17T18:24:15.252Z,99147.13
2023-01-17T18:26:45.180Z,99162.53
2023-01-17T18:29:17.853Z,99159.31
2023-01-17T18:31:45.637Z,99165.41
2023-01-17T18:34:15.691Z,99175.75
2023-01-17T18:36:43.185Z,99173.16
2023-01-17T18:39:21.399Z,99186.00
2023-01-17T18:41:49.242Z,99184.25
2023-01-17T18:44:16.198Z,99184.16
2023-01-17T18:46:43.187Z,99186.41
2023-01-17T18:49:16.068Z,99187.06
2023-01-17T18:51:48.901Z,99198.06
2023-01-17T18:54:15.406Z,99188.53
2023-01-17T18:56:42.360Z,99197.00
2023-01-17T18:59:12.164Z,99196.81
2023-01-17T19:01:42.138Z,99197.44
2023-01-17T19:04:09.038Z,99186.06
2023-01-17T19:06:38.194Z,99197.22
2023-01-17T19:09:07.100Z,99186.81
2023-01-17T19:11:34.626Z,99193.53
2023-01-17T19:14:01.004Z,99200.75
2023-01-17T19:16:30.429Z,99201.16
2023-01-17T19:19:01.810Z,99205.72
2023-01-17T19:21:28.957Z,99203.00
2023-01-17T19:23:56.502Z,99208.41
2023-01-17T19:26:25.035Z,99202.38
2023-01-17T19:28:51.678Z,99199.72
2023-01-17T19:31:25.883Z,99210.88
2023-01-17T19:33:55.947Z,99214.16
2023-01-17T19:36:28.273Z,99215.38
2023-01-17T19:39:04.534Z,99212.28
2023-01-17T19:41:32.732Z,99210.16
2023-01-17T19:44:01.615Z,99212.13
2023-01-17T19:46:28.620Z,99219.88
2023-01-17T19:48:56.656Z,99224.00
2023-01-17T19:51:24.359Z,99224.00
2023-01-17T19:53:51.070Z,99221.53
2023-01-17T19:56:20.999Z,99224.94
2023-01-17T19:58:48.013Z,99220.69
2023-01-17T20:01:24.489Z,99225.88
2023-01-17T20:03:51.689Z,99230.81
2023-01-17T20:06:20.755Z,99230.66
2023-01-17T20:08:47.231Z,99229.94
2023-01-17T20:11:24.202Z,99230.06
2023-01-17T20:13:56.156Z,99222.84
2023-01-17T20:16:24.244Z,99226.69
2023-01-17T20:18:51.133Z,99226.78
2023-01-17T20:21:23.225Z,99226.16
2023-01-17T20:23:51.316Z,99229.47
2023-01-17T20:26:20.138Z,99232.78
2023-01-17T20:28:48.843Z,99225.75
2023-01-17T20:31:17.788Z,99230.19
2023-01-17T20:33:46.776Z,99232.13
2023-01-17T20:36:15.394Z,99229.88
2023-01-17T20:38:45.817Z,99233.66
2023-01-17T20:41:17.875Z,99230.25
2023-01-17T20:43:49.630Z,99232.19
2023-01-17T20:46:17.677Z,99222.50
2023-01-17T20:48:46.746Z,99226.75
2023-01-17T20:51:15.141Z,99241.88
2023-01-17T20:53:43.878Z,99240.00
2023-01-17T20:56:13.275Z,99229.88
2023-01-17T20:58:40.432Z,99234.00
2023-01-17T21:01:08.648Z,99238.88
2023-01-17T21:03:36.528Z,99237.03
2023-01-17T21:06:05.864Z,99230.31
2023-01-17T21:08:34.516Z,99233.50
2023-01-17T21:11:01.550Z,99233.00
2023-01-17T21:13:28.251Z,99242.34
2023-01-17T21:15:55.076Z,99247.91
2023-01-17T21:18:23.975Z,99246.03
2023-01-17T21:20:50.855Z,99244.66
2023-01-17T21:23:20.680Z,99248.78
2023-01-17T21:25:57.650Z,99253.22
2023-01-17T21:28:29.220Z,99251.94
2023-01-17T21:30:56.300Z,99245.03
2023-01-17T21:33:24.232Z,99246.16
2023-01-17T21:35:51.128Z,99247.47
2023-01-17T21:38:18.014Z,99249.28
2023-01-17T21:40:45.153Z,99258.53
2023-01-17T21:43:11.957Z,99253.75
2023-01-17T21:45:39.978Z,99250.44
2023-01-17T21:48:07.724Z,99254.03
2023-01-17T21:50:34.246Z,99255.06
2023-01-17T21:53:00.780Z,99254.44
2023-01-17T21:55:45.915Z,99251.41
2023-01-17T21:58:32.768Z,99249.72
2023-01-17T22:01:08.833Z,99248.91
2023-01-17T22:03:36.172Z,99252.63
2023-01-17T22:06:04.849Z,99251.34
2023-01-17T22:08:37.756Z,99260.19
2023-01-17T22:11:07.300Z,99256.22
2023-01-17T22:13:35.408Z,99264.88
2023-01-17T22:16:04.372Z,99263.13
2023-01-17T22:18:31.767Z,99270.25
2023-01-17T22:20:58.145Z,99268.66
2023-01-17T22:23:24.519Z,99273.09
2023-01-17T22:25:50.887Z,99275.78
2023-01-17T22:28:17.305Z,99281.03
2023-01-17T22:30:43.837Z,99284.84
2023-01-17T22:33:10.305Z,99280.66
2023-01-17T22:35:36.676Z,99287.47
2023-01-17T22:38:03.011Z,99282.69
2023-01-17T22:40:31.483Z,99292.38
2023-01-17T22:42:58.174Z,99292.53
2023-01-17T22:45:25.799Z,99288.13
2023-01-17T22:47:52.180Z,99290.53
2023-01-17T22:50:18.520Z,99298.28
2023-01-17T22:52:44.910Z,99294.97
2023-01-17T22:55:12.069Z,99302.69
2023-01-17T22:57:38.534Z,99295.78
2023-01-17T23:00:14.220Z,99297.44
2023-01-17T23:02:41.740Z,99292.53
2023-01-17T23:05:11.997Z,99285.91
2023-01-17T23:07:44.358Z,99286.09
2023-01-17T23:10:13.363Z,99293.28
2023-01-17T23:12:39.906Z,99285.91
2023-01-17T23:15:25.112Z,99295.47
2023-01-17T23:18:09.775Z,99291.22
2023-01-17T23:20:36.491Z,99291.97
2023-01-17T23:23:02.837Z,99294.47
2023-01-17T23:25:29.263Z,99288.84
2023-01-17T23:28:27.790Z,99289.00
2023-01-17T23:30:54.199Z,99298.50
2023-01-17T23:33:20.552Z,99286.78
2023-01-17T23:35:46.953Z,99287.69
2023-01-17T23:38:29.181Z,99294.50
2023-01-17T23:41:18.977Z,99286.22
2023-01-17T23:43:50.084Z,99292.22
2023-01-17T23:46:16.622Z,99292.38
2023-01-17T23:48:42.994Z,99290.91
2023-01-17T23:51:09.379Z,99295.22
2023-01-17T23:53:37.793Z,99299.75
2023-01-17T23:56:19.642Z,99298.25
2023-01-17T23:58:46.395Z,99298.53
